Time;durP1;ratioP1;P1;durP2;ratioP2;P2;SDS_P1;SDS_P2;PMS_P1;PMS_P2;Temp;Humidity;BMP_temperature;BMP_pressure;BME280_temperature;BME280_humidity;BME280_pressure;Samples;Min_cycle;Max_cycle;Signal;HPM_P1;HPM_P2
2021/12/10 00:01:10;;;;;;;16.20;8.25;;;2.40;99.90;;;;;;5040971;28;20077;-67
2021/12/10 00:03:47;;;;;;;17.85;7.65;;;2.40;99.90;;;;;;5011743;28;20095;-67
2021/12/10 00:06:34;;;;;;;14.48;7.53;;;2.40;99.90;;;;;;5037782;28;20041;-66
2021/12/10 00:09:16;;;;;;;18.88;7.55;;;2.50;99.90;;;;;;5029658;28;20049;-66
2021/12/10 00:12:03;;;;;;;14.88;7.22;;;2.50;99.90;;;;;;5029359;28;20056;-67
2021/12/10 00:14:32;;;;;;;12.57;7.32;;;2.50;99.90;;;;;;5028923;28;20045;-66
2021/12/10 00:17:01;;;;;;;17.48;7.35;;;2.50;99.90;;;;;;5042798;28;20052;-67
2021/12/10 00:19:36;;;;;;;21.77;6.93;;;2.50;99.90;;;;;;5011738;28;20057;-67
2021/12/10 00:22:09;;;;;;;12.35;6.78;;;2.60;99.90;;;;;;5041180;28;20037;-67
2021/12/10 00:24:39;;;;;;;16.55;6.65;;;2.60;99.90;;;;;;5047220;28;20563;-68
2021/12/10 00:27:09;;;;;;;13.88;6.20;;;2.50;99.90;;;;;;5029049;28;20057;-66
2021/12/10 00:29:42;;;;;;;15.75;6.35;;;2.60;99.90;;;;;;4998122;28;20048;-66
2021/12/10 00:32:28;;;;;;;18.55;5.60;;;2.60;99.90;;;;;;5035543;28;20053;-67
2021/12/10 00:34:58;;;;;;;13.52;6.20;;;2.60;99.90;;;;;;5036049;28;20048;-66
2021/12/10 00:37:26;;;;;;;14.18;6.47;;;2.50;99.90;;;;;;5041229;28;20046;-67
2021/12/10 00:39:57;;;;;;;11.07;5.47;;;2.60;99.90;;;;;;5047856;28;20048;-67
2021/12/10 00:42:29;;;;;;;12.57;6.22;;;2.50;99.90;;;;;;5043908;28;20041;-66
2021/12/10 00:44:59;;;;;;;15.55;6.20;;;2.60;99.90;;;;;;5005348;28;20128;-66
2021/12/10 00:47:28;;;;;;;12.88;6.53;;;2.60;99.90;;;;;;5046721;28;20045;-68
2021/12/10 00:49:56;;;;;;;11.02;5.53;;;2.50;99.90;;;;;;5047150;28;20045;-67
2021/12/10 00:52:24;;;;;;;15.98;6.20;;;2.60;99.90;;;;;;5047703;28;20048;-68
2021/12/10 00:54:52;;;;;;;17.42;6.13;;;2.60;99.90;;;;;;5001569;28;20050;-67
2021/12/10 00:57:21;;;;;;;12.75;6.10;;;2.60;99.90;;;;;;5048353;28;20073;-66
2021/12/10 00:59:50;;;;;;;13.75;5.43;;;2.60;99.90;;;;;;5035235;28;20510;-68
2021/12/10 01:02:22;;;;;;;10.90;5.50;;;2.50;99.90;;;;;;5027978;28;20053;-67
2021/12/10 01:04:54;;;;;;;11.27;5.25;;;2.60;99.90;;;;;;5023398;28;20123;-67
2021/12/10 01:07:27;;;;;;;11.60;5.50;;;2.50;99.90;;;;;;5033713;28;20037;-67
2021/12/10 01:09:59;;;;;;;13.40;5.45;;;2.40;99.90;;;;;;5030535;28;20041;-67
2021/12/10 01:12:38;;;;;;;13.13;7.03;;;2.50;99.90;;;;;;5028918;28;20052;-67
2021/12/10 01:15:50;;;;;;;12.98;5.30;;;2.40;99.90;;;;;;5028226;28;20049;-67
2021/12/10 01:26:40;;;;;;;14.60;5.72;;;2.50;99.90;;;;;;5022521;28;20439;-67
2021/12/10 01:29:10;;;;;;;10.85;5.38;;;2.50;99.90;;;;;;5017430;28;20446;-67
2021/12/10 01:31:41;;;;;;;12.65;4.82;;;2.50;99.90;;;;;;5044061;28;20059;-67
2021/12/10 01:34:09;;;;;;;8.73;4.78;;;2.50;99.90;;;;;;5024289;28;20056;-67
2021/12/10 01:36:38;;;;;;;13.65;5.40;;;2.50;99.90;;;;;;5029276;28;20068;-67
2021/12/10 01:39:11;;;;;;;13.07;5.63;;;2.50;99.90;;;;;;5049342;28;20049;-66
2021/12/10 01:41:40;;;;;;;;;;;2.60;99.90;;;;;;5048143;28;20041;-67
2021/12/10 01:44:16;;;;;;;11.13;4.97;;;2.60;99.90;;;;;;5032302;28;19924;-67
2021/12/10 01:46:46;;;;;;;12.82;5.20;;;2.60;99.90;;;;;;5027686;28;20059;-67
2021/12/10 01:49:14;;;;;;;8.90;4.45;;;2.60;99.90;;;;;;5048907;28;20451;-67
2021/12/10 01:51:44;;;;;;;12.43;5.30;;;2.60;99.90;;;;;;5016863;28;20046;-66
2021/12/10 01:54:25;;;;;;;11.75;5.20;;;2.60;99.90;;;;;;5027240;28;20129;-66
2021/12/10 01:56:56;;;;;;;12.77;5.45;;;2.60;99.90;;;;;;5017680;28;20057;-67
2021/12/10 01:59:27;;;;;;;11.70;5.20;;;2.60;99.90;;;;;;5050518;28;20048;-67
2021/12/10 02:01:59;;;;;;;10.77;5.00;;;2.60;99.90;;;;;;5030961;28;20048;-66
2021/12/10 02:04:30;;;;;;;10.23;4.50;;;2.60;99.90;;;;;;5040834;28;20068;-66
2021/12/10 02:07:00;;;;;;;11.13;5.68;;;2.60;99.90;;;;;;5047481;28;20052;-68
2021/12/10 02:09:28;;;;;;;11.73;5.20;;;2.60;99.90;;;;;;5036908;28;20045;-67
2021/12/10 02:11:56;;;;;;;9.93;4.78;;;2.60;99.90;;;;;;5030750;28;20467;-68
2021/12/10 02:14:23;;;;;;;13.57;5.88;;;2.60;99.90;;;;;;5038511;28;20392;-67
2021/12/10 02:16:56;;;;;;;9.43;4.60;;;2.60;99.90;;;;;;5051409;28;20045;-66
2021/12/10 02:19:23;;;;;;;11.93;5.22;;;2.60;99.90;;;;;;5031831;28;20041;-66
2021/12/10 02:21:51;;;;;;;10.10;5.05;;;2.60;99.90;;;;;;5042754;28;20128;-66
2021/12/10 02:24:19;;;;;;;9.25;5.28;;;2.60;99.90;;;;;;5038268;28;20083;-66
2021/12/10 02:26:58;;;;;;;12.25;4.95;;;2.60;99.90;;;;;;5049635;28;20411;-66
2021/12/10 02:29:29;;;;;;;10.60;5.05;;;2.60;99.90;;;;;;5030685;28;20037;-66
2021/12/10 02:31:56;;;;;;;10.60;5.38;;;2.60;99.90;;;;;;5031438;28;20041;-66
2021/12/10 02:34:25;;;;;;;11.05;4.80;;;2.50;99.90;;;;;;5049073;28;20045;-65
2021/12/10 02:36:53;;;;;;;11.15;5.47;;;2.60;99.90;;;;;;5049065;28;20072;-66
2021/12/10 02:39:27;;;;;;;12.00;5.15;;;2.60;99.90;;;;;;5028622;28;20456;-66
2021/12/10 02:41:55;;;;;;;11.02;4.95;;;2.60;99.90;;;;;;5029138;28;20045;-66
2021/12/10 02:44:27;;;;;;;12.98;5.15;;;2.60;99.90;;;;;;5048909;28;20887;-66
2021/12/10 02:46:56;;;;;;;9.70;4.72;;;2.70;99.90;;;;;;5049793;28;20254;-66
2021/12/10 02:49:26;;;;;;;13.40;5.43;;;2.70;99.90;;;;;;5046643;28;20033;-66
2021/12/10 02:51:54;;;;;;;13.10;5.25;;;2.60;99.90;;;;;;5026532;28;20094;-66
2021/12/10 02:54:32;;;;;;;10.77;5.50;;;2.60;99.90;;;;;;5038375;28;20053;-66
2021/12/10 02:57:07;;;;;;;15.32;5.32;;;2.60;99.90;;;;;;5029959;28;20057;-67
2021/12/10 02:59:35;;;;;;;11.32;5.55;;;2.60;99.90;;;;;;5030499;28;20057;-66
2021/12/10 03:02:06;;;;;;;11.65;4.75;;;2.60;99.90;;;;;;5030074;28;20053;-65
2021/12/10 03:04:34;;;;;;;13.23;4.90;;;2.60;99.90;;;;;;5022909;28;20033;-66
2021/12/10 03:07:11;;;;;;;8.75;4.80;;;2.60;99.90;;;;;;5033402;28;20045;-67
2021/12/10 03:09:42;;;;;;;11.85;4.90;;;2.60;99.90;;;;;;5035848;28;20480;-67
2021/12/10 03:12:10;;;;;;;12.50;5.40;;;2.60;99.90;;;;;;5012084;28;20493;-67
2021/12/10 03:14:40;;;;;;;12.52;5.32;;;2.60;99.90;;;;;;5012329;28;20045;-68
2021/12/10 03:17:12;;;;;;;12.48;4.55;;;2.60;99.90;;;;;;5030536;28;20096;-67
2021/12/10 03:19:39;;;;;;;13.43;4.78;;;2.60;99.90;;;;;;5030673;28;20046;-67
2021/12/10 03:22:07;;;;;;;10.57;5.38;;;2.70;99.90;;;;;;5007266;28;20149;-67
2021/12/10 03:24:35;;;;;;;8.27;4.80;;;2.60;99.90;;;;;;5031687;28;20649;-67
2021/12/10 03:27:05;;;;;;;13.02;5.00;;;2.60;99.90;;;;;;5030345;28;20056;-66
2021/12/10 03:29:35;;;;;;;12.20;5.53;;;2.60;99.90;;;;;;5032026;28;20138;-66
2021/12/10 03:32:07;;;;;;;14.75;5.57;;;2.60;99.90;;;;;;5005029;28;20498;-66
2021/12/10 03:34:36;;;;;;;10.98;5.28;;;2.50;99.90;;;;;;5013828;28;20117;-66
2021/12/10 03:37:04;;;;;;;12.52;5.72;;;2.50;99.90;;;;;;5012909;28;20552;-66
2021/12/10 03:39:32;;;;;;;12.52;6.53;;;2.50;99.90;;;;;;5031965;28;20514;-66
2021/12/10 03:42:00;;;;;;;10.52;5.93;;;2.50;99.90;;;;;;5029214;28;20045;-66
2021/12/10 03:44:28;;;;;;;15.13;6.63;;;2.40;99.90;;;;;;5031937;28;20415;-66
2021/12/10 03:46:58;;;;;;;15.10;7.80;;;2.40;99.90;;;;;;5029330;28;20492;-66
2021/12/10 03:49:25;;;;;;;14.98;8.23;;;2.40;99.90;;;;;;5014866;28;20107;-67
2021/12/10 03:51:53;;;;;;;13.80;7.82;;;2.40;99.90;;;;;;5016782;28;20101;-66
2021/12/10 03:54:21;;;;;;;16.08;8.38;;;2.40;99.90;;;;;;5031225;28;20496;-66
2021/12/10 03:56:49;;;;;;;16.27;8.82;;;2.30;99.90;;;;;;5028278;28;20063;-66
2021/12/10 03:59:18;;;;;;;17.90;8.15;;;2.40;99.90;;;;;;5038616;28;20064;-66
2021/12/10 04:01:49;;;;;;;16.08;8.95;;;2.30;99.90;;;;;;4991430;28;20072;-66
2021/12/10 04:04:20;;;;;;;21.65;9.43;;;2.30;99.90;;;;;;5030987;28;20045;-66
2021/12/10 04:06:48;;;;;;;16.15;8.63;;;2.30;99.90;;;;;;5033872;28;20426;-66
2021/12/10 04:09:16;;;;;;;19.13;9.02;;;2.30;99.90;;;;;;5029235;28;20154;-66
2021/12/10 04:11:43;;;;;;;19.65;9.90;;;2.20;99.90;;;;;;5027999;28;20065;-66
2021/12/10 04:14:11;;;;;;;22.23;9.43;;;2.20;99.90;;;;;;5010792;28;20115;-66
2021/12/10 04:16:39;;;;;;;17.95;8.60;;;2.20;99.90;;;;;;5028413;28;20167;-65
2021/12/10 04:19:09;;;;;;;18.45;8.75;;;2.20;99.90;;;;;;5026202;28;20038;-66
2021/12/10 04:21:41;;;;;;;17.92;8.65;;;2.30;99.90;;;;;;4994326;28;20048;-66
2021/12/10 04:24:16;;;;;;;18.53;8.63;;;2.30;99.90;;;;;;5004979;28;20049;-66
2021/12/10 04:26:45;;;;;;;17.48;9.70;;;2.30;99.90;;;;;;5016518;28;20291;-66
2021/12/10 04:29:12;;;;;;;18.45;9.05;;;2.30;99.90;;;;;;5019100;28;20458;-67
2021/12/10 04:31:40;;;;;;;16.10;8.45;;;2.30;99.90;;;;;;5019560;28;20606;-67
2021/12/10 04:34:07;;;;;;;18.65;9.27;;;2.20;99.90;;;;;;5006190;28;20072;-68
2021/12/10 04:36:35;;;;;;;17.52;9.15;;;2.20;99.90;;;;;;5038387;28;20041;-68
2021/12/10 04:39:03;;;;;;;18.45;9.27;;;2.20;99.90;;;;;;5016050;28;20057;-67
2021/12/10 04:41:31;;;;;;;20.85;9.82;;;2.20;99.90;;;;;;5032982;28;20063;-68
2021/12/10 04:43:59;;;;;;;21.13;9.68;;;2.20;99.90;;;;;;5039773;28;20496;-67
2021/12/10 04:46:27;;;;;;;19.15;10.05;;;2.20;99.90;;;;;;5040921;28;20044;-67
2021/12/10 04:48:59;;;;;;;18.23;9.88;;;2.20;99.90;;;;;;5026345;28;20413;-67
2021/12/10 04:51:30;;;;;;;17.80;9.73;;;2.20;99.90;;;;;;5041442;28;20488;-68
2021/12/10 04:53:59;;;;;;;22.00;11.00;;;2.30;99.90;;;;;;5029300;28;20293;-66
2021/12/10 04:56:28;;;;;;;26.05;13.43;;;2.20;99.90;;;;;;4993941;28;20061;-68
2021/12/10 04:58:55;;;;;;;23.38;13.07;;;2.20;99.90;;;;;;5036736;28;20107;-68
2021/12/10 05:01:23;;;;;;;19.33;10.40;;;2.20;99.90;;;;;;5028468;28;20045;-68
2021/12/10 05:03:51;;;;;;;20.33;9.95;;;2.20;99.90;;;;;;5023691;28;20100;-66
2021/12/10 05:06:18;;;;;;;18.40;10.68;;;2.20;99.90;;;;;;5037024;28;20038;-66
2021/12/10 05:08:45;;;;;;;22.70;10.93;;;2.20;99.90;;;;;;5010881;28;20455;-67
2021/12/10 05:11:14;;;;;;;18.73;11.18;;;2.20;99.90;;;;;;5007670;28;20053;-66
2021/12/10 05:13:44;;;;;;;17.65;10.70;;;2.10;99.90;;;;;;5013984;28;20058;-67
2021/12/10 05:16:13;;;;;;;24.30;12.20;;;2.20;99.90;;;;;;4992161;28;20056;-67
2021/12/10 05:18:44;;;;;;;26.10;13.15;;;2.10;99.90;;;;;;5033426;28;20049;-66
2021/12/10 05:21:14;;;;;;;25.70;13.68;;;2.10;99.90;;;;;;5033849;28;20104;-67
2021/12/10 05:23:41;;;;;;;23.50;12.57;;;2.10;99.90;;;;;;4996510;28;20056;-66
2021/12/10 05:26:08;;;;;;;23.33;10.82;;;2.00;99.90;;;;;;5038990;28;20044;-66
2021/12/10 05:28:36;;;;;;;19.60;11.43;;;2.00;99.90;;;;;;5032786;28;20063;-67
2021/12/10 05:31:05;;;;;;;20.20;11.85;;;1.80;99.90;;;;;;5037932;28;20134;-67
2021/12/10 05:33:32;;;;;;;26.10;13.98;;;1.70;99.90;;;;;;5034024;28;20079;-66
2021/12/10 05:36:01;;;;;;;26.48;14.65;;;1.60;99.90;;;;;;5016248;28;20102;-66
2021/12/10 05:38:31;;;;;;;24.83;13.30;;;1.50;99.90;;;;;;5014964;28;20492;-67
2021/12/10 05:41:00;;;;;;;27.63;13.57;;;1.40;99.90;;;;;;5016693;28;20064;-66
2021/12/10 05:43:28;;;;;;;22.60;13.70;;;1.30;99.90;;;;;;5018734;28;20041;-66
2021/12/10 05:45:55;;;;;;;28.23;14.20;;;1.30;99.90;;;;;;5016114;28;20412;-67
2021/12/10 05:48:23;;;;;;;28.08;14.00;;;1.20;99.90;;;;;;5020636;28;20041;-67
2021/12/10 05:50:52;;;;;;;22.35;13.32;;;1.10;99.90;;;;;;5016513;28;20048;-66
2021/12/10 05:53:20;;;;;;;35.00;17.08;;;1.10;99.90;;;;;;5034292;28;20076;-66
2021/12/10 05:55:48;;;;;;;28.67;15.13;;;1.00;99.90;;;;;;5023385;28;20064;-67
2021/12/10 05:58:17;;;;;;;27.05;14.05;;;1.00;99.90;;;;;;4999325;28;20057;-67
2021/12/10 06:00:46;;;;;;;33.72;16.52;;;0.90;99.90;;;;;;5001630;28;20049;-66
2021/12/10 06:03:14;;;;;;;30.35;16.85;;;0.80;99.90;;;;;;5009579;28;20539;-65
2021/12/10 06:05:42;;;;;;;41.35;19.27;;;0.80;99.90;;;;;;5022636;28;20069;-65
2021/12/10 06:08:11;;;;;;;28.27;16.27;;;0.80;99.90;;;;;;5039456;28;20049;-65
2021/12/10 06:10:39;;;;;;;27.65;16.05;;;0.80;99.90;;;;;;5006978;28;20060;-66
2021/12/10 06:13:08;;;;;;;32.60;16.02;;;0.70;99.90;;;;;;5046976;28;20045;-65
2021/12/10 06:15:37;;;;;;;34.00;16.13;;;0.70;99.90;;;;;;5022439;28;20404;-65
2021/12/10 06:18:06;;;;;;;30.75;16.33;;;0.60;99.90;;;;;;5009997;28;20040;-66
2021/12/10 06:20:39;;;;;;;40.25;17.80;;;0.60;99.90;;;;;;5009407;28;20408;-65
2021/12/10 06:23:07;;;;;;;32.15;17.63;;;0.60;99.90;;;;;;5010829;28;20076;-66
2021/12/10 06:25:36;;;;;;;34.60;17.13;;;0.60;99.90;;;;;;5031376;28;20100;-66
2021/12/10 06:28:04;;;;;;;37.00;17.25;;;0.60;99.90;;;;;;5007993;28;20412;-65
2021/12/10 06:30:38;;;;;;;38.05;17.48;;;0.60;99.90;;;;;;5024744;28;20049;-65
2021/12/10 06:33:08;;;;;;;35.38;17.98;;;0.60;99.90;;;;;;5016186;28;20042;-65
2021/12/10 06:35:39;;;;;;;36.38;19.05;;;0.60;99.90;;;;;;5022058;28;20096;-65
2021/12/10 06:38:07;;;;;;;37.13;17.42;;;0.50;99.90;;;;;;5018004;28;20042;-65
2021/12/10 06:40:38;;;;;;;35.80;19.25;;;0.50;99.90;;;;;;5031453;28;20056;-65
2021/12/10 06:43:06;;;;;;;38.30;19.98;;;0.50;99.90;;;;;;5011089;28;20045;-65
2021/12/10 06:45:36;;;;;;;34.10;17.85;;;0.40;99.90;;;;;;5016168;28;20069;-65
2021/12/10 06:48:06;;;;;;;40.70;18.30;;;0.40;99.90;;;;;;5016916;28;20061;-65
2021/12/10 06:50:38;;;;;;;35.60;19.02;;;0.50;99.90;;;;;;5017217;28;20037;-65
2021/12/10 06:53:05;;;;;;;36.33;18.92;;;0.50;99.90;;;;;;5014010;28;20046;-65
2021/12/10 06:55:34;;;;;;;34.35;18.27;;;0.40;99.90;;;;;;5014349;28;20046;-65
2021/12/10 06:58:03;;;;;;;38.30;18.60;;;0.50;99.90;;;;;;5025846;28;20080;-65
2021/12/10 07:00:56;;;;;;;41.10;20.58;;;0.50;99.90;;;;;;5018068;28;20518;-65
2021/12/10 07:03:27;;;;;;;43.47;21.52;;;0.50;99.90;;;;;;5038473;28;20082;-65
2021/12/10 07:05:57;;;;;;;39.33;19.70;;;0.60;99.90;;;;;;5025763;28;20045;-65
2021/12/10 07:08:26;;;;;;;39.03;18.63;;;0.70;99.90;;;;;;5033517;28;20050;-65
2021/12/10 07:10:54;;;;;;;38.15;20.30;;;0.70;99.90;;;;;;5020159;28;20392;-65
2021/12/10 07:13:22;;;;;;;40.58;19.45;;;0.80;99.90;;;;;;5042724;28;20045;-65
2021/12/10 07:15:50;;;;;;;37.97;18.85;;;0.90;99.90;;;;;;5044212;28;20044;-65
2021/12/10 07:18:19;;;;;;;38.17;18.23;;;0.90;99.90;;;;;;5037900;28;20046;-65
2021/12/10 07:20:48;;;;;;;33.30;18.20;;;1.00;99.90;;;;;;5032965;28;20051;-67
2021/12/10 07:23:15;;;;;;;34.05;17.23;;;1.10;99.90;;;;;;5033070;28;20050;-64
2021/12/10 07:25:43;;;;;;;32.50;16.55;;;1.20;99.90;;;;;;5042470;28;20069;-65
2021/12/10 07:28:10;;;;;;;36.28;18.35;;;1.20;99.90;;;;;;5049819;28;20052;-65
2021/12/10 07:30:38;;;;;;;33.05;17.45;;;1.30;99.90;;;;;;5036781;28;20485;-65
2021/12/10 07:33:08;;;;;;;33.55;16.13;;;1.30;99.90;;;;;;5012613;28;20046;-65
2021/12/10 07:35:37;;;;;;;32.45;16.10;;;1.40;99.90;;;;;;5017155;28;20049;-65
2021/12/10 07:38:05;;;;;;;27.83;15.43;;;1.50;99.90;;;;;;5017867;28;20046;-65
2021/12/10 07:40:35;;;;;;;30.75;15.05;;;1.50;99.90;;;;;;5016530;28;20046;-65
2021/12/10 07:43:04;;;;;;;29.77;14.45;;;1.60;99.90;;;;;;5016323;28;20045;-65
2021/12/10 07:45:33;;;;;;;26.80;14.30;;;1.60;99.90;;;;;;5025101;28;20049;-65
2021/12/10 07:48:07;;;;;;;27.60;14.23;;;1.60;99.90;;;;;;5020048;28;20049;-65
2021/12/10 07:50:42;;;;;;;28.92;14.30;;;1.60;99.90;;;;;;4996684;28;20045;-65
2021/12/10 07:53:10;;;;;;;28.67;13.65;;;1.70;99.90;;;;;;5000954;28;20045;-65
2021/12/10 07:55:39;;;;;;;24.17;12.93;;;1.70;99.90;;;;;;5011438;28;20038;-65
2021/12/10 07:58:07;;;;;;;26.00;14.07;;;1.70;99.90;;;;;;5033113;28;20383;-65
2021/12/10 08:00:37;;;;;;;26.38;13.63;;;1.70;99.90;;;;;;5018359;28;20052;-65
2021/12/10 08:03:04;;;;;;;32.20;13.75;;;1.80;99.90;;;;;;5037865;28;20877;-65
2021/12/10 08:05:32;;;;;;;26.80;13.38;;;1.80;99.90;;;;;;5036637;28;20037;-64
2021/12/10 08:08:00;;;;;;;26.67;13.20;;;1.80;99.90;;;;;;5040423;28;20072;-65
2021/12/10 08:10:30;;;;;;;23.67;12.50;;;1.80;99.90;;;;;;5019084;28;20416;-65
2021/12/10 08:12:57;;;;;;;24.42;13.48;;;1.90;99.90;;;;;;5038826;28;20044;-65
2021/12/10 08:15:24;;;;;;;23.35;13.32;;;1.90;99.90;;;;;;5039277;28;20132;-66
2021/12/10 08:17:52;;;;;;;25.67;13.55;;;2.00;99.90;;;;;;5029289;28;20051;-66
2021/12/10 08:20:22;;;;;;;23.15;13.32;;;2.10;99.90;;;;;;5021015;28;20514;-66
2021/12/10 08:22:51;;;;;;;26.63;13.48;;;2.10;99.90;;;;;;5014934;28;20095;-66
2021/12/10 08:25:20;;;;;;;21.58;12.50;;;2.20;99.90;;;;;;5037949;28;20041;-66
2021/12/10 08:27:49;;;;;;;22.45;11.95;;;2.20;99.90;;;;;;5042993;28;20041;-65
2021/12/10 08:30:19;;;;;;;27.15;13.15;;;2.30;99.90;;;;;;5032984;28;20192;-65
2021/12/10 08:32:47;;;;;;;25.23;12.77;;;2.30;99.90;;;;;;5033335;28;20159;-65
2021/12/10 08:35:19;;;;;;;22.17;12.05;;;2.30;99.90;;;;;;5027945;28;20056;-65
2021/12/10 08:37:47;;;;;;;24.52;13.23;;;2.30;99.90;;;;;;5032062;28;20052;-64
2021/12/10 08:40:19;;;;;;;24.48;12.50;;;2.30;99.90;;;;;;5044625;28;20049;-65
2021/12/10 08:42:46;;;;;;;25.83;13.48;;;2.30;99.90;;;;;;5020188;28;20482;-65
2021/12/10 08:45:13;;;;;;;25.80;13.10;;;2.30;99.90;;;;;;5025480;28;20073;-65
2021/12/10 08:47:41;;;;;;;31.58;13.23;;;2.30;99.90;;;;;;5030200;28;20053;-65
2021/12/10 08:50:09;;;;;;;22.90;13.35;;;2.30;99.90;;;;;;5029505;28;20124;-65
2021/12/10 08:52:37;;;;;;;27.40;13.32;;;2.30;99.90;;;;;;5022498;28;20045;-65
2021/12/10 08:55:06;;;;;;;24.55;12.63;;;2.40;99.90;;;;;;5027831;28;20551;-65
2021/12/10 08:57:34;;;;;;;23.15;12.60;;;2.50;99.90;;;;;;5031985;28;20049;-65
2021/12/10 09:00:03;;;;;;;21.10;12.43;;;2.60;99.90;;;;;;4970869;28;20093;-65
2021/12/10 09:02:36;;;;;;;24.42;12.35;;;2.60;99.90;;;;;;5028639;28;20049;-67
2021/12/10 09:05:07;;;;;;;22.42;12.00;;;2.70;99.90;;;;;;5030097;28;20140;-65
2021/12/10 09:07:35;;;;;;;21.93;13.10;;;2.70;99.90;;;;;;4999503;28;20121;-65
2021/12/10 09:10:07;;;;;;;21.45;12.50;;;2.80;99.90;;;;;;5021644;28;20072;-66
2021/12/10 09:12:36;;;;;;;20.92;12.00;;;2.90;99.90;;;;;;5027913;28;20065;-65
2021/12/10 09:15:08;;;;;;;20.10;11.73;;;3.00;99.90;;;;;;5029247;28;20060;-66
2021/12/10 09:17:39;;;;;;;20.95;11.98;;;3.10;99.90;;;;;;5018027;28;20047;-66
2021/12/10 09:20:14;;;;;;;23.40;11.70;;;3.30;99.90;;;;;;5034041;28;20574;-65
2021/12/10 09:22:42;;;;;;;22.52;11.68;;;3.40;99.90;;;;;;5029482;28;20076;-65
2021/12/10 09:25:11;;;;;;;20.52;11.50;;;3.40;99.90;;;;;;5036907;28;20037;-66
2021/12/10 09:27:39;;;;;;;21.63;11.88;;;3.50;99.90;;;;;;5041223;28;20041;-66
2021/12/10 09:30:11;;;;;;;17.75;10.88;;;3.50;99.90;;;;;;5022394;28;20048;-65
2021/12/10 09:32:39;;;;;;;23.35;11.35;;;3.20;99.90;;;;;;5040900;28;20053;-66
2021/12/10 09:35:08;;;;;;;19.73;11.40;;;3.30;99.90;;;;;;5017477;28;20061;-65
2021/12/10 09:37:37;;;;;;;20.30;10.95;;;3.30;99.90;;;;;;5018537;28;20111;-65
2021/12/10 09:40:09;;;;;;;18.63;10.32;;;3.40;99.90;;;;;;5024804;28;20048;-65
2021/12/10 09:42:36;;;;;;;21.75;11.70;;;3.50;99.90;;;;;;5013032;28;20535;-67
2021/12/10 09:45:05;;;;;;;15.23;10.05;;;3.60;99.90;;;;;;5034240;28;20049;-65
2021/12/10 09:47:32;;;;;;;16.60;10.02;;;3.70;99.90;;;;;;5027823;28;20124;-64
2021/12/10 09:50:01;;;;;;;20.55;10.70;;;3.80;99.90;;;;;;5011441;28;20052;-65
2021/12/10 09:52:28;;;;;;;19.95;9.95;;;3.80;99.90;;;;;;5030148;28;20042;-65
2021/12/10 09:54:56;;;;;;;18.40;10.82;;;4.00;99.90;;;;;;5032506;28;20052;-65
2021/12/10 09:57:28;;;;;;;20.35;11.13;;;4.00;99.90;;;;;;5009423;28;20129;-65
2021/12/10 10:00:28;;;;;;;21.08;11.10;;;4.20;99.90;;;;;;5035004;28;20408;-65
2021/12/10 10:02:58;;;;;;;21.88;11.55;;;4.30;99.90;;;;;;5034062;28;20141;-66
2021/12/10 10:05:27;;;;;;;22.08;11.50;;;4.30;99.90;;;;;;5024110;28;20033;-65
2021/12/10 10:07:58;;;;;;;19.40;10.82;;;4.30;99.90;;;;;;5042938;28;20033;-65
2021/12/10 10:10:27;;;;;;;15.67;9.97;;;4.30;99.90;;;;;;5018477;28;20033;-66
2021/12/10 10:12:56;;;;;;;19.27;10.50;;;4.20;99.90;;;;;;5051392;28;20099;-66
2021/12/10 10:15:32;;;;;;;20.52;9.65;;;4.30;99.90;;;;;;5029039;28;20041;-66
2021/12/10 10:18:03;;;;;;;20.55;10.43;;;4.40;99.90;;;;;;5033588;28;20056;-66
2021/12/10 10:20:35;;;;;;;23.40;9.52;;;4.40;99.90;;;;;;5031287;28;20056;-66
2021/12/10 10:23:04;;;;;;;21.85;12.32;;;4.50;99.90;;;;;;5039949;28;20049;-65
2021/12/10 10:25:33;;;;;;;17.33;9.38;;;4.50;99.90;;;;;;5042687;28;20038;-66
2021/12/10 10:28:03;;;;;;;15.93;8.57;;;4.60;99.90;;;;;;4996940;28;20053;-66
2021/12/10 10:30:35;;;;;;;16.73;8.20;;;4.70;99.90;;;;;;5041770;28;20059;-66
2021/12/10 10:33:08;;;;;;;15.80;9.50;;;5.00;99.90;;;;;;5023226;28;20124;-65
2021/12/10 10:35:43;;;;;;;17.38;9.25;;;5.80;99.90;;;;;;5035973;28;20058;-65
2021/12/10 10:38:12;;;;;;;26.48;9.32;;;6.40;99.90;;;;;;5031508;28;20049;-65
2021/12/10 10:40:45;;;;;;;33.83;13.73;;;6.30;99.90;;;;;;5020905;28;20053;-64
2021/12/10 10:43:14;;;;;;;18.38;10.52;;;6.40;99.90;;;;;;5037805;28;20044;-66
2021/12/10 10:45:44;;;;;;;20.90;9.02;;;6.40;99.90;;;;;;5023029;28;20049;-65
2021/12/10 10:48:14;;;;;;;15.75;8.65;;;6.30;99.90;;;;;;5041044;28;20459;-65
2021/12/10 10:50:57;;;;;;;22.85;8.05;;;6.40;99.90;;;;;;5038917;28;20033;-65
2021/12/10 10:53:31;;;;;;;62.88;10.73;;;6.50;99.90;;;;;;5015900;28;20038;-65
2021/12/10 10:56:12;;;;;;;91.90;11.27;;;6.70;99.90;;;;;;5028958;28;20495;-65
2021/12/10 10:58:45;;;;;;;50.28;9.48;;;6.80;99.90;;;;;;5044515;28;20055;-66
2021/12/10 11:01:24;;;;;;;75.53;9.82;;;7.10;99.90;;;;;;5037841;28;20493;-67
2021/12/10 11:04:27;;;;;;;38.50;8.15;;;7.50;99.90;;;;;;5006907;28;20088;-66
2021/12/10 11:07:02;;;;;;;43.03;9.70;;;7.90;99.90;;;;;;5032747;28;20042;-66
2021/12/10 11:09:32;;;;;;;50.05;9.55;;;8.00;99.90;;;;;;5021856;28;20514;-67
2021/12/10 11:12:07;;;;;;;30.98;7.25;;;7.80;99.90;;;;;;5039621;28;20199;-65
2021/12/10 11:14:42;;;;;;;35.17;7.55;;;7.50;99.90;;;;;;5046992;28;20053;-65
2021/12/10 11:17:17;;;;;;;21.70;6.93;;;7.40;99.90;;;;;;5046280;28;20045;-65
2021/12/10 11:20:00;;;;;;;24.20;6.85;;;7.30;99.90;;;;;;5042562;28;20571;-66
2021/12/10 11:22:29;;;;;;;16.27;6.40;;;7.10;99.90;;;;;;5022828;28;20098;-65
2021/12/10 11:25:02;;;;;;;15.45;6.38;;;6.90;99.90;;;;;;5022814;28;20096;-66
2021/12/10 11:27:33;;;;;;;14.50;5.85;;;7.10;99.90;;;;;;5025604;28;20077;-65
2021/12/10 11:30:04;;;;;;;16.08;6.25;;;7.20;99.90;;;;;;5026051;28;20069;-66
2021/12/10 11:32:36;;;;;;;11.90;6.13;;;7.30;99.90;;;;;;5013657;28;20054;-64
2021/12/10 11:35:14;;;;;;;17.20;5.38;;;7.10;99.90;;;;;;5027477;28;20140;-66
2021/12/10 11:37:48;;;;;;;18.67;5.75;;;7.00;99.90;;;;;;5015080;28;20061;-65
2021/12/10 11:40:35;;;;;;;10.75;5.18;;;6.90;99.90;;;;;;5021103;28;20049;-65
2021/12/10 11:49:09;;;;;;;16.80;7.15;;;9.20;99.90;;;;;;5012603;28;20037;-66
2021/12/10 11:51:41;;;;;;;15.23;6.07;;;9.40;99.90;;;;;;5023738;28;20045;-65
2021/12/10 11:54:23;;;;;;;10.43;4.18;;;9.40;99.90;;;;;;5022528;28;20164;-66
2021/12/10 11:56:55;;;;;;;9.50;3.90;;;9.30;99.90;;;;;;5026619;28;20057;-66
2021/12/10 11:59:27;;;;;;;10.32;4.03;;;9.30;99.90;;;;;;5039570;28;20053;-66
2021/12/10 12:02:15;;;;;;;;;;;9.20;99.90;;;;;;5016154;28;20056;-66
2021/12/10 12:04:47;;;;;;;10.85;3.90;;;9.30;99.90;;;;;;5031684;28;19924;-66
2021/12/10 12:07:32;;;;;;;10.98;4.10;;;9.20;99.90;;;;;;5031506;28;20065;-65
2021/12/10 12:10:12;;;;;;;9.75;4.00;;;8.70;99.90;;;;;;4997878;28;20046;-65
2021/12/10 12:12:50;;;;;;;10.82;4.70;;;8.40;99.90;;;;;;5015735;28;20090;-65
2021/12/10 12:15:21;;;;;;;18.15;8.43;;;8.00;99.90;;;;;;5033909;28;20052;-65
2021/12/10 12:17:52;;;;;;;21.58;9.75;;;7.70;99.90;;;;;;5026168;28;20121;-65
2021/12/10 12:20:31;;;;;;;15.02;5.38;;;7.30;99.90;;;;;;5016460;28;20049;-64
2021/12/10 12:25:57;;;;;;;9.57;4.95;;;6.30;99.90;;;;;;5014333;28;20056;-66
2021/12/10 12:29:04;;;;;;;10.18;5.00;;;6.20;99.90;;;;;;5026654;28;20041;-65
2021/12/10 12:31:47;;;;;;;11.10;5.78;;;5.90;99.90;;;;;;5020936;28;20046;-64
2021/12/10 12:34:20;;;;;;;11.07;5.03;;;5.70;99.90;;;;;;5022355;28;20045;-65
2021/12/10 12:36:51;;;;;;;13.45;5.85;;;5.60;99.90;;;;;;5036322;28;20049;-66
2021/12/10 12:39:32;;;;;;;16.83;5.88;;;5.50;99.90;;;;;;5034606;28;20111;-65
2021/12/10 12:42:25;;;;;;;10.93;5.88;;;5.40;99.90;;;;;;5006047;28;20159;-65
2021/12/10 12:45:04;;;;;;;12.13;5.22;;;5.50;99.90;;;;;;4993517;28;20148;-65
2021/12/10 12:47:54;;;;;;;15.90;5.40;;;5.40;99.90;;;;;;5019028;28;20041;-65
2021/12/10 12:50:43;;;;;;;17.27;5.07;;;5.50;99.90;;;;;;5014027;28;20377;-65
2021/12/10 12:53:11;;;;;;;9.52;5.10;;;5.50;99.90;;;;;;5017491;28;20041;-65
2021/12/10 12:56:03;;;;;;;11.48;5.55;;;5.50;99.90;;;;;;5012425;28;20417;-64
2021/12/10 12:58:59;;;;;;;10.15;4.38;;;5.40;99.90;;;;;;5019328;28;20050;-64
2021/12/10 13:01:59;;;;;;;12.75;3.88;;;5.40;99.90;;;;;;5035506;28;20083;-64
2021/12/10 13:04:36;;;;;;;13.18;4.63;;;5.40;99.90;;;;;;5019981;28;20474;-66
2021/12/10 13:07:20;;;;;;;9.50;4.13;;;5.40;99.90;;;;;;5023808;28;20060;-65
2021/12/10 13:09:54;;;;;;;12.40;4.38;;;5.30;99.90;;;;;;5028181;28;20037;-65
2021/12/10 13:15:26;;;;;;;11.27;4.53;;;5.30;99.90;;;;;;5025717;28;20052;-65
2021/12/10 13:17:58;;;;;;;9.80;4.15;;;5.40;99.90;;;;;;5008194;28;20152;-65
2021/12/10 13:20:29;;;;;;;9.32;4.10;;;5.40;99.90;;;;;;5015098;28;20060;-65
2021/12/10 13:23:03;;;;;;;12.38;5.93;;;5.50;99.90;;;;;;5031157;28;20155;-65
2021/12/10 13:25:33;;;;;;;8.57;4.72;;;5.40;99.90;;;;;;5019121;28;20129;-65